Time;durP1;ratioP1;P1;durP2;ratioP2;P2;SDS_P1;SDS_P2;PMS_P1;PMS_P2;Temp;Humidity;BMP_temperature;BMP_pressure;BME280_temperature;BME280_humidity;BME280_pressure;Samples;Min_cycle;Max_cycle;Signal;HPM_P1;HPM_P2
2022/06/18 00:00:26;;;;;;;3.65;1.60;;;;;;;18.29;48.04;100498.44;7658002;32;38031;-73
2022/06/18 00:04:43;;;;;;;1.58;1.48;;;;;;;18.28;48.19;100484.94;7658099;32;37325;-74
2022/06/18 00:09:00;;;;;;;4.43;1.70;;;;;;;18.04;48.64;100493.41;7658422;32;37517;-74
2022/06/18 00:17:52;;;;;;;2.75;1.50;;;;;;;18.28;47.99;100505.09;7657438;32;38714;-73
2022/06/18 00:22:14;;;;;;;2.70;1.67;;;;;;;18.09;48.86;100507.13;7657649;32;36995;-73
2022/06/18 00:26:30;;;;;;;2.05;1.45;;;;;;;18.07;48.80;100507.41;7632260;32;39668;-73
2022/06/18 00:30:47;;;;;;;3.35;1.62;;;;;;;18.11;49.13;100500.19;7657503;32;39633;-73
2022/06/18 00:35:03;;;;;;;2.17;1.35;;;;;;;18.03;49.86;100492.59;7655891;32;38855;-74
2022/06/18 00:39:19;;;;;;;2.08;1.60;;;;;;;18.01;50.42;100494.84;7657197;32;37134;-74
2022/06/18 00:43:43;;;;;;;2.33;1.40;;;;;;;17.97;50.78;100502.09;7656990;32;40222;-73
2022/06/18 00:48:19;;;;;;;2.40;1.15;;;;;;;18.12;50.23;100501.81;7656941;32;38967;-74
2022/06/18 00:52:46;;;;;;;2.20;1.35;;;;;;;18.27;49.57;100503.47;7660270;32;38242;-76
2022/06/18 00:57:10;;;;;;;4.78;1.80;;;;;;;18.08;49.71;100497.22;7646726;32;37819;-76
2022/06/18 01:01:32;;;;;;;2.78;1.50;;;;;;;18.21;49.30;100499.16;7659998;32;40115;-76
2022/06/18 01:05:49;;;;;;;5.72;1.62;;;;;;;17.83;49.96;100504.78;7659841;32;40037;-76
2022/06/18 01:10:16;;;;;;;2.75;1.55;;;;;;;17.62;50.53;100505.13;7659683;32;38013;-75
2022/06/18 01:14:32;;;;;;;3.55;1.62;;;;;;;17.83;49.69;100496.50;7659886;32;36823;-73
2022/06/18 01:18:49;;;;;;;3.28;1.58;;;;;;;17.88;49.47;100490.94;7646529;32;39915;-74
2022/06/18 01:23:20;;;;;;;4.32;2.10;;;;;;;17.67;50.49;100492.41;7646255;32;39827;-73
2022/06/18 01:27:37;;;;;;;4.75;2.10;;;;;;;17.50;51.24;100485.50;7647241;32;38794;-73
2022/06/18 01:31:54;;;;;;;2.37;1.48;;;;;;;17.56;50.95;100476.03;7658509;32;37801;-73
2022/06/18 01:36:11;;;;;;;2.47;1.45;;;;;;;17.42;51.37;100484.28;7659834;32;39426;-74
2022/06/18 01:41:49;;;;;;;4.18;1.60;;;;;;;17.39;51.09;100473.84;7645112;32;39918;-73
2022/06/18 01:45:36;;;;;;;2.35;1.50;;;;;;;17.42;51.05;100481.50;7649149;32;37979;-72
2022/06/18 01:50:01;;;;;;;3.67;1.92;;;;;;;17.35;51.36;100485.75;7645778;32;37197;-72
2022/06/18 01:54:25;;;;;;;4.47;2.03;;;;;;;17.17;51.97;100488.22;7646284;32;39577;-74
2022/06/18 01:58:57;;;;;;;2.35;1.60;;;;;;;17.34;51.45;100476.69;7646274;32;39841;-73
2022/06/18 02:03:14;;;;;;;4.28;1.98;;;;;;;17.06;52.36;100481.25;7658372;32;38715;-73
2022/06/18 02:07:30;;;;;;;4.18;1.60;;;;;;;17.45;51.20;100467.13;7645983;32;37598;-74
2022/06/18 02:11:46;;;;;;;3.25;1.70;;;;;;;17.02;52.35;100469.19;7659130;32;39881;-73
2022/06/18 02:16:10;;;;;;;2.37;1.60;;;;;;;16.77;53.05;100468.41;7658259;32;42288;-73
2022/06/18 02:20:29;;;;;;;2.37;1.60;;;;;;;17.12;51.86;100459.94;7645865;32;38856;-74
2022/06/18 02:24:46;;;;;;;3.67;2.05;;;;;;;16.81;52.81;100469.44;7645532;32;37160;-73
2022/06/18 02:29:03;;;;;;;2.62;1.70;;;;;;;16.93;52.50;100465.47;7658797;32;40053;-73
2022/06/18 02:33:36;;;;;;;4.60;1.70;;;;;;;16.74;52.58;100462.69;7645860;32;40068;-73
2022/06/18 02:37:54;;;;;;;2.40;1.73;;;;;;;16.48;53.65;100466.59;7658934;32;37631;-74
2022/06/18 02:42:14;;;;;;;2.42;1.45;;;;;;;16.34;54.33;100482.19;7658464;32;36743;-73
2022/06/18 02:46:31;;;;;;;3.28;1.80;;;;;;;16.74;52.75;100474.50;7658981;32;39327;-74
2022/06/18 02:50:47;;;;;;;1.95;1.77;;;;;;;16.53;53.47;100466.53;7658537;32;40065;-73
2022/06/18 02:55:32;;;;;;;2.95;2.10;;;;;;;16.34;54.44;100471.19;7658538;32;37895;-72
2022/06/18 02:59:48;;;;;;;5.03;2.20;;;;;;;16.39;53.96;100481.31;7652898;32;36614;-73
2022/06/18 03:04:04;;;;;;;2.47;2.17;;;;;;;16.56;53.52;100467.03;7658782;32;39925;-74
2022/06/18 03:08:23;;;;;;;2.47;1.80;;;;;;;16.59;53.74;100471.97;7658667;32;40767;-74
2022/06/18 03:12:39;;;;;;;6.72;2.50;;;;;;;16.44;54.20;100476.56;7657535;32;37086;-73
2022/06/18 03:16:55;;;;;;;2.65;2.22;;;;;;;16.50;53.85;100474.53;7658122;32;37976;-73
2022/06/18 03:21:31;;;;;;;3.12;2.17;;;;;;;16.35;54.32;100483.84;7658589;32;40176;-73
2022/06/18 03:25:47;;;;;;;2.70;1.90;;;;;;;16.30;54.63;100486.66;7658637;32;40302;-73
2022/06/18 03:30:05;;;;;;;3.50;2.00;;;;;;;16.46;54.30;100479.00;7644887;32;38014;-72
2022/06/18 03:34:21;;;;;;;2.72;2.10;;;;;;;16.34;54.85;100476.69;7658361;32;37014;-72
2022/06/18 03:38:37;;;;;;;3.53;1.85;;;;;;;16.42;54.68;100470.53;7658400;32;39294;-72
2022/06/18 03:42:53;;;;;;;1.83;1.70;;;;;;;16.37;54.83;100476.09;7657738;32;39968;-74
2022/06/18 03:47:09;;;;;;;2.83;2.10;;;;;;;16.52;54.67;100472.31;7657557;32;38235;-73
2022/06/18 03:51:26;;;;;;;3.70;2.33;;;;;;;16.39;55.26;100473.88;7658070;32;37231;-73
2022/06/18 03:55:43;;;;;;;3.05;2.35;;;;;;;16.56;54.90;100469.78;7658013;32;40084;-72
2022/06/18 04:00:00;;;;;;;4.43;2.70;;;;;;;16.44;55.24;100471.06;7657868;32;39934;-73
2022/06/18 04:04:16;;;;;;;5.47;2.35;;;;;;;16.57;55.27;100474.19;7657914;32;37698;-73
2022/06/18 04:08:32;;;;;;;3.33;2.20;;;;;;;16.60;55.44;100479.91;7657868;32;37564;-74
2022/06/18 04:12:48;;;;;;;3.10;2.35;;;;;;;16.86;54.58;100493.38;7657304;32;39022;-74
2022/06/18 04:17:16;;;;;;;3.87;2.20;;;;;;;16.67;55.55;100485.06;7656401;32;40884;-74
2022/06/18 04:21:32;;;;;;;4.00;2.08;;;;;;;16.70;55.87;100478.97;7657357;32;38036;-75
2022/06/18 04:25:49;;;;;;;2.30;2.00;;;;;;;16.72;56.11;100474.00;7656738;32;37080;-74
2022/06/18 04:30:06;;;;;;;4.45;2.37;;;;;;;16.78;56.11;100486.59;7643897;32;40204;-74
2022/06/18 04:34:22;;;;;;;4.75;2.42;;;;;;;16.83;56.16;100478.25;7657391;32;39599;-74
2022/06/18 04:38:38;;;;;;;3.30;2.45;;;;;;;16.88;56.25;100486.47;7657131;32;38075;-73
2022/06/18 04:42:54;;;;;;;5.55;2.35;;;;;;;16.92;56.71;100488.59;7656322;32;37347;-74
2022/06/18 04:47:10;;;;;;;5.95;2.60;;;;;;;17.05;56.89;100485.13;7657116;32;39372;-73
2022/06/18 04:51:27;;;;;;;6.05;2.33;;;;;;;17.38;55.63;100482.41;7656977;32;39915;-72
2022/06/18 04:55:43;;;;;;;7.35;2.28;;;;;;;17.22;55.54;100490.91;7656612;32;38598;-74
2022/06/18 04:59:59;;;;;;;3.35;2.22;;;;;;;17.49;55.46;100494.91;7656499;32;37901;-73
2022/06/18 05:04:15;;;;;;;3.12;2.20;;;;;;;17.76;55.85;100494.16;7656114;32;40080;-73
2022/06/18 05:08:32;;;;;;;4.22;2.25;;;;;;;18.10;53.08;100492.22;7655605;32;40576;-78
2022/06/18 05:12:48;;;;;;;3.15;2.17;;;;;;;18.46;52.44;100505.31;7655938;32;38527;-78
2022/06/18 05:17:06;;;;;;;2.08;1.80;;;;;;;18.48;52.08;100509.38;7656024;32;37146;-77
2022/06/18 05:21:22;;;;;;;3.35;1.90;;;;;;;18.65;50.91;100510.72;7647824;32;39012;-74
2022/06/18 05:25:38;;;;;;;2.65;1.90;;;;;;;18.73;51.42;100519.09;7655930;32;39756;-75
2022/06/18 05:29:55;;;;;;;3.10;2.10;;;;;;;18.80;51.83;100521.44;7656378;32;39001;-75
2022/06/18 05:34:11;;;;;;;3.45;1.90;;;;;;;19.00;51.99;100522.13;7655891;32;37796;-75
2022/06/18 05:38:27;;;;;;;4.45;2.25;;;;;;;19.25;51.09;100520.75;7659596;32;39344;-74
2022/06/18 05:42:44;;;;;;;4.07;2.40;;;;;;;19.18;51.69;100532.22;7659856;32;39910;-75
2022/06/18 05:47:00;;;;;;;2.95;2.35;;;;;;;19.38;51.84;100539.22;7659304;32;37816;-75
2022/06/18 05:51:16;;;;;;;3.53;2.17;;;;;;;19.54;49.76;100538.84;7659427;32;38009;-74
2022/06/18 05:55:32;;;;;;;4.25;2.40;;;;;;;19.71;49.31;100533.44;7659396;32;39372;-75
2022/06/18 05:59:49;;;;;;;3.80;1.92;;;;;;;19.76;49.27;100538.06;7659234;32;39995;-75
2022/06/18 06:04:05;;;;;;;3.28;2.05;;;;;;;19.82;47.92;100534.84;7657488;32;38064;-74
2022/06/18 06:08:22;;;;;;;6.60;1.95;;;;;;;20.16;48.02;100530.66;7657994;32;37381;-74
2022/06/18 06:12:38;;;;;;;5.50;2.37;;;;;;;20.52;47.18;100528.81;7658157;32;40450;-75
2022/06/18 06:16:54;;;;;;;3.50;2.10;;;;;;;20.73;46.50;100524.34;7658162;32;40450;-75
2022/06/18 06:21:10;;;;;;;5.32;1.92;;;;;;;20.57;47.74;100529.47;7659189;32;38218;-76
2022/06/18 06:25:26;;;;;;;3.10;1.90;;;;;;;20.78;47.72;100523.38;7657244;32;37032;-74
2022/06/18 06:29:42;;;;;;;10.55;2.00;;;;;;;20.92;47.38;100524.06;7656124;32;38968;-74
2022/06/18 06:33:58;;;;;;;3.30;2.08;;;;;;;21.26;46.98;100525.22;7657186;32;39871;-75
2022/06/18 06:38:15;;;;;;;3.78;1.70;;;;;;;21.35;46.41;100528.81;7658845;32;38701;-72
2022/06/18 06:42:40;;;;;;;2.95;1.83;;;;;;;21.48;46.43;100531.78;7658944;32;36979;-73
2022/06/18 06:46:58;;;;;;;2.10;1.87;;;;;;;22.03;45.26;100525.47;7658356;32;39486;-73
2022/06/18 06:51:20;;;;;;;3.75;1.80;;;;;;;21.97;45.57;100529.56;7658888;32;39598;-76
2022/06/18 07:00:13;;;;;;;2.17;1.87;;;;;;;22.36;44.68;100522.09;7647319;32;36781;-75
2022/06/18 07:04:29;;;;;;;3.25;1.70;;;;;;;22.69;43.23;100511.13;7633190;32;40160;-76
2022/06/18 07:08:46;;;;;;;3.00;2.00;;;;;;;22.93;43.41;100522.78;7658581;32;40008;-75
2022/06/18 07:13:02;;;;;;;2.28;1.70;;;;;;;23.20;42.77;100511.16;7658362;32;38504;-75
2022/06/18 07:17:19;;;;;;;4.97;1.90;;;;;;;23.15;42.16;100519.69;7658110;32;36913;-75
2022/06/18 07:21:36;;;;;;;5.45;1.95;;;;;;;22.44;42.32;100529.59;7658354;32;40159;-75
2022/06/18 07:25:52;;;;;;;3.62;1.83;;;;;;;23.04;43.49;100519.25;7658382;32;39682;-74
2022/06/18 07:30:09;;;;;;;3.17;1.83;;;;;;;23.06;42.24;100518.97;7658020;32;38656;-72
2022/06/18 07:34:26;;;;;;;6.70;2.20;;;;;;;23.04;41.25;100512.88;7651051;32;38436;-73
2022/06/18 07:38:42;;;;;;;6.47;1.90;;;;;;;22.86;41.74;100513.00;7652690;32;39094;-73
2022/06/18 07:42:58;;;;;;;2.62;1.77;;;;;;;22.94;42.30;100513.25;7658129;32;40584;-72
2022/06/18 07:47:16;;;;;;;3.70;1.70;;;;;;;23.06;42.31;100510.63;7644467;32;38016;-73
2022/06/18 07:51:33;;;;;;;5.55;2.30;;;;;;;22.90;41.28;100509.53;7658000;32;37941;-72
2022/06/18 07:55:49;;;;;;;3.58;1.80;;;;;;;23.08;41.34;100511.09;7657916;32;40176;-72
2022/06/18 08:00:06;;;;;;;3.70;2.12;;;;;;;23.36;41.08;100514.13;7656650;32;39861;-77
2022/06/18 08:04:28;;;;;;;2.62;1.87;;;;;;;23.43;40.83;100508.00;7657676;32;37739;-74
2022/06/18 08:08:44;;;;;;;5.68;2.20;;;;;;;23.76;38.40;100505.22;7657613;32;37137;-72
2022/06/18 08:13:00;;;;;;;4.45;1.95;;;;;;;24.23;35.80;100501.25;7657591;32;39419;-73
2022/06/18 08:17:17;;;;;;;3.42;2.10;;;;;;;23.95;34.11;100509.47;7657354;32;39930;-72
2022/06/18 08:21:44;;;;;;;4.37;2.10;;;;;;;24.29;37.24;100504.66;7656595;32;38092;-73
2022/06/18 08:26:00;;;;;;;3.58;1.90;;;;;;;23.70;36.20;100497.41;7657539;32;37172;-72
2022/06/18 08:30:17;;;;;;;2.60;1.80;;;;;;;24.41;35.36;100498.25;7657285;32;40072;-73
2022/06/18 08:34:33;;;;;;;4.65;1.85;;;;;;;24.74;35.58;100492.56;7643663;32;40842;-72
2022/06/18 08:38:50;;;;;;;2.85;2.00;;;;;;;24.96;34.91;100488.47;7656663;32;38184;-73
2022/06/18 08:43:51;;;;;;;4.53;2.22;;;;;;;24.40;35.29;100499.41;7657050;32;37892;-72
2022/06/18 08:48:48;;;;;;;10.73;2.28;;;;;;;23.81;36.92;100484.72;7656849;32;40126;-74
2022/06/18 08:53:07;;;;;;;8.48;1.95;;;;;;;24.69;38.54;100476.88;7643861;32;40003;-74
2022/06/18 08:57:37;;;;;;;2.15;1.83;;;;;;;24.21;36.25;100472.94;7656310;32;38829;-75
2022/06/18 09:02:07;;;;;;;4.15;2.10;;;;;;;24.76;35.95;100472.72;7643610;32;37957;-74
2022/06/18 09:06:54;;;;;;;3.90;1.92;;;;;;;24.86;36.02;100467.44;7656670;32;40173;-74
2022/06/18 09:11:17;;;;;;;4.15;1.80;;;;;;;25.37;34.59;100463.34;7658019;32;40684;-74
2022/06/18 09:15:37;;;;;;;4.03;1.80;;;;;;;25.43;35.40;100456.34;7659796;32;38782;-74
2022/06/18 09:20:01;;;;;;;4.65;1.75;;;;;;;25.60;35.35;100458.81;7646488;32;36981;-74
2022/06/18 09:24:40;;;;;;;3.83;1.70;;;;;;;25.66;33.16;100448.19;7659829;32;39940;-75
2022/06/18 09:29:08;;;;;;;3.60;1.60;;;;;;;25.75;30.93;100446.06;7648444;32;39916;-75
2022/06/18 09:33:33;;;;;;;4.25;1.83;;;;;;;25.88;31.42;100443.16;7659693;32;38021;-74
2022/06/18 09:38:04;;;;;;;3.75;1.67;;;;;;;26.30;31.75;100437.03;7659491;32;37174;-74
2022/06/18 09:42:32;;;;;;;4.50;1.60;;;;;;;26.12;31.24;100431.84;7659743;32;39384;-75
2022/06/18 09:46:53;;;;;;;4.45;1.70;;;;;;;26.14;30.79;100440.66;7659475;32;40175;-74
2022/06/18 09:51:27;;;;;;;2.85;1.40;;;;;;;26.54;31.23;100431.19;7645942;32;38046;-74
2022/06/18 09:56:11;;;;;;;2.12;1.58;;;;;;;26.65;30.16;100430.66;7659729;32;37733;-74
2022/06/18 10:00:31;;;;;;;3.30;1.75;;;;;;;25.67;29.95;100419.09;7630159;32;39371;-74
2022/06/18 10:09:38;;;;;;;3.92;1.70;;;;;;;26.45;29.12;100405.44;7648145;32;37970;-76
2022/06/18 10:14:16;;;;;;;2.17;1.50;;;;;;;26.40;28.74;100405.72;7647113;32;37164;-75
2022/06/18 10:18:49;;;;;;;2.72;1.55;;;;;;;26.45;31.86;100396.25;7659232;32;39020;-75
2022/06/18 10:23:27;;;;;;;2.37;1.40;;;;;;;26.61;29.90;100391.41;7657926;32;40100;-75
2022/06/18 10:28:21;;;;;;;2.35;1.70;;;;;;;26.36;30.27;100385.28;7659067;32;38729;-75
2022/06/18 10:33:03;;;;;;;4.30;1.58;;;;;;;26.27;30.17;100377.09;7645310;32;37610;-75
2022/06/18 10:37:47;;;;;;;4.00;1.70;;;;;;;26.74;29.71;100378.16;7645458;32;39288;-74
2022/06/18 10:42:39;;;;;;;4.53;1.58;;;;;;;26.74;28.62;100366.97;7659054;32;40777;-76
2022/06/18 10:47:12;;;;;;;2.60;1.58;;;;;;;26.96;31.29;100359.81;7645718;32;38024;-76
2022/06/18 10:51:33;;;;;;;3.00;1.75;;;;;;;27.94;28.14;100354.81;7658882;32;37924;-75
2022/06/18 10:56:13;;;;;;;1.98;1.50;;;;;;;28.69;28.19;100354.25;7645866;32;39472;-75
2022/06/18 11:00:29;;;;;;;5.43;1.60;;;;;;;29.67;27.05;100340.84;7658528;32;40070;-75
2022/06/18 11:04:58;;;;;;;3.55;1.30;;;;;;;28.87;24.97;100337.62;7658713;32;38906;-75
2022/06/18 11:09:23;;;;;;;3.58;1.42;;;;;;;28.21;26.65;100337.97;7658556;32;36712;-75
2022/06/18 11:13:44;;;;;;;2.45;1.52;;;;;;;28.78;28.33;100335.91;7657406;32;39464;-75
2022/06/18 11:18:13;;;;;;;2.65;1.35;;;;;;;28.88;26.23;100325.22;7655890;32;39878;-74
2022/06/18 11:22:30;;;;;;;3.17;1.50;;;;;;;28.90;26.01;100320.03;7658355;32;38036;-74
2022/06/18 11:26:56;;;;;;;2.67;1.30;;;;;;;29.46;25.41;100312.56;7658425;32;36871;-74
2022/06/18 11:31:25;;;;;;;3.53;1.50;;;;;;;29.56;26.68;100312.69;7644440;32;39124;-76
2022/06/18 11:35:42;;;;;;;3.25;1.60;;;;;;;29.21;25.68;100313.97;7657531;32;40019;-76
2022/06/18 11:40:09;;;;;;;2.55;1.27;;;;;;;29.98;25.36;100306.97;7656783;32;38049;-76
2022/06/18 11:44:36;;;;;;;3.10;1.60;;;;;;;30.11;23.75;100303.47;7656759;32;37055;-76
2022/06/18 11:49:03;;;;;;;3.40;1.50;;;;;;;29.97;23.15;100303.34;7644476;32;39091;-74
2022/06/18 11:53:25;;;;;;;2.75;1.30;;;;;;;30.10;23.54;100301.84;7644040;32;40692;-75
2022/06/18 11:58:01;;;;;;;3.05;1.35;;;;;;;30.31;24.20;100292.69;7656495;32;38042;-75
2022/06/18 12:02:51;;;;;;;2.22;1.40;;;;;;;30.07;23.82;100290.56;7652352;32;38041;-76
2022/06/18 12:07:41;;;;;;;3.58;1.20;;;;;;;30.48;24.41;100285.56;7657851;32;39304;-77
2022/06/18 12:12:03;;;;;;;3.65;1.45;;;;;;;30.36;22.20;100273.88;7657881;32;39996;-75
2022/06/18 12:16:22;;;;;;;11.48;1.83;;;;;;;30.82;24.36;100274.03;7657707;32;38912;-78
2022/06/18 12:20:47;;;;;;;3.10;1.48;;;;;;;30.94;22.08;100272.06;7657327;32;37114;-69
2022/06/18 12:25:14;;;;;;;2.75;1.40;;;;;;;31.50;21.20;100273.31;7657793;32;39414;-70
2022/06/18 12:29:39;;;;;;;1.50;1.12;;;;;;;30.65;22.98;100267.16;7657574;32;40542;-69
2022/06/18 12:34:22;;;;;;;1.58;1.30;;;;;;;30.92;21.87;100263.19;7657592;32;37919;-69
2022/06/18 12:39:21;;;;;;;9.75;1.60;;;;;;;30.84;21.38;100256.75;7657744;32;38100;-69
2022/06/18 12:43:51;;;;;;;6.47;2.17;;;;;;;31.62;20.38;100247.53;7635642;32;40290;-70
2022/06/18 12:48:35;;;;;;;2.03;1.20;;;;;;;31.30;22.95;100247.53;7631524;32;39871;-69
2022/06/18 12:53:17;;;;;;;1.45;1.20;;;;;;;31.02;21.55;100237.88;7656981;32;38678;-69
2022/06/18 12:57:52;;;;;;;3.60;1.30;;;;;;;30.78;21.42;100233.00;7636689;32;36849;-69
2022/06/18 13:02:25;;;;;;;1.65;1.30;;;;;;;31.24;22.29;100233.06;7656720;32;40196;-69
2022/06/18 13:06:51;;;;;;;3.55;1.45;;;;;;;31.11;21.74;100233.87;7656761;32;40942;-68
2022/06/18 13:11:18;;;;;;;4.62;1.40;;;;;;;30.36;22.11;100229.69;7642920;32;38781;-78
2022/06/18 13:15:41;;;;;;;1.77;1.20;;;;;;;30.90;22.72;100221.34;7637352;32;179771;-76
2022/06/18 13:20:19;;;;;;;3.05;1.50;;;;;;;31.27;23.08;100214.56;7656180;32;39395;-72
2022/06/18 13:29:26;;;;;;;1.10;1.00;;;;;;;31.85;20.71;100206.03;7644725;32;37941;-71
2022/06/18 13:34:10;;;;;;;3.58;1.17;;;;;;;31.44;21.71;100199.66;7655978;32;37990;-74
2022/06/18 13:38:43;;;;;;;3.05;1.30;;;;;;;31.05;20.87;100194.84;7629673;32;39468;-74
2022/06/18 13:43:18;;;;;;;2.55;1.20;;;;;;;31.41;21.92;100186.37;7629592;32;40881;-74
2022/06/18 13:47:47;;;;;;;1.70;1.10;;;;;;;31.39;21.40;100187.97;7629295;32;38540;-69
2022/06/18 13:52:05;;;;;;;1.20;1.12;;;;;;;31.85;20.98;100189.13;7629442;32;36955;-71
2022/06/18 13:56:24;;;;;;;4.72;1.30;;;;;;;31.59;22.41;100196.84;7629428;32;39337;-70
2022/06/18 14:00:43;;;;;;;3.17;1.30;;;;;;;31.80;23.37;100191.12;7643509;32;40919;-76
2022/06/18 14:05:09;;;;;;;2.85;1.30;;;;;;;31.66;21.21;100184.75;7659326;32;38635;-77
2022/06/18 14:09:28;;;;;;;1.65;0.95;;;;;;;31.93;21.31;100182.25;7659290;32;37137;-77
2022/06/18 14:13:52;;;;;;;1.73;1.20;;;;;;;32.19;20.52;100178.94;7646330;32;39948;-77
2022/06/18 14:18:17;;;;;;;1.40;0.93;;;;;;;31.60;20.95;100173.91;7646082;32;39849;-74
2022/06/18 14:22:34;;;;;;;3.28;1.20;;;;;;;31.86;21.39;100166.16;7646691;32;38083;-72
2022/06/18 14:26:51;;;;;;;2.17;1.10;;;;;;;32.43;22.45;100159.47;7659022;32;37006;-75
2022/06/18 14:31:16;;;;;;;5.55;1.20;;;;;;;32.59;19.83;100138.41;7659108;32;40122;-75
2022/06/18 14:36:00;;;;;;;2.78;1.50;;;;;;;32.83;20.30;100137.41;7658866;32;39979;-77
2022/06/18 14:45:25;;;;;;;2.05;1.15;;;;;;;33.33;19.00;100119.22;7658992;32;37935;-77
2022/06/18 14:49:47;;;;;;;1.25;1.15;;;;;;;33.27;19.35;100121.72;7658500;32;40015;-77
2022/06/18 14:54:08;;;;;;;1.20;1.10;;;;;;;32.83;20.16;100114.84;7658805;32;40493;-78
2022/06/18 14:58:49;;;;;;;4.28;1.00;;;;;;;33.44;18.61;100107.81;7658648;32;38002;-77
2022/06/18 15:03:27;;;;;;;2.08;1.08;;;;;;;33.15;17.74;100108.13;7658714;32;37977;-76
2022/06/18 15:07:51;;;;;;;2.87;1.42;;;;;;;33.57;18.81;100103.22;7646698;32;40098;-76
2022/06/18 15:12:10;;;;;;;2.03;1.40;;;;;;;32.74;19.20;100106.06;7658609;32;40745;-77
2022/06/18 15:16:35;;;;;;;1.02;1.00;;;;;;;32.43;19.71;100097.41;7658290;32;37389;-77
2022/06/18 15:20:56;;;;;;;2.72;1.20;;;;;;;33.09;20.56;100093.63;7658422;32;37683;-77
2022/06/18 15:25:23;;;;;;;5.05;1.30;;;;;;;33.60;19.33;100088.25;7658575;32;39934;-77
2022/06/18 15:29:52;;;;;;;5.00;1.17;;;;;;;33.55;19.40;100085.88;7658522;32;39908;-77
2022/06/18 15:34:23;;;;;;;1.20;1.10;;;;;;;32.84;18.91;100091.03;7658172;32;39155;-77
2022/06/18 15:38:39;;;;;;;2.55;1.30;;;;;;;32.96;19.37;100080.44;7658162;32;37249;-77
2022/06/18 15:43:01;;;;;;;6.55;1.20;;;;;;;32.54;21.91;100092.47;7657933;32;40101;-77
2022/06/18 15:47:35;;;;;;;1.62;1.33;;;;;;;31.70;20.37;100089.72;7644853;32;40008;-76
2022/06/18 15:51:52;;;;;;;2.97;1.27;;;;;;;32.61;19.39;100086.00;7644637;32;38097;-75
2022/06/18 15:56:19;;;;;;;2.87;1.30;;;;;;;32.55;19.19;100082.78;7658233;32;36746;-75
2022/06/18 16:00:37;;;;;;;1.95;1.30;;;;;;;32.16;19.78;100089.50;7645296;32;39329;-77
2022/06/18 16:04:53;;;;;;;2.65;1.20;;;;;;;32.00;21.01;100086.38;7645011;32;40019;-77
2022/06/18 16:09:09;;;;;;;1.17;1.08;;;;;;;31.61;21.21;100087.34;7657633;32;39010;-78
2022/06/18 16:13:29;;;;;;;1.80;1.00;;;;;;;32.09;20.69;100078.28;7657852;32;36995;-77
2022/06/18 16:17:46;;;;;;;4.93;1.37;;;;;;;32.44;20.65;100082.06;7644249;32;39990;-71
2022/06/18 16:22:02;;;;;;;3.50;1.17;;;;;;;32.16;20.29;100077.44;7643108;32;40699;-77
2022/06/18 16:26:28;;;;;;;1.20;1.00;;;;;;;31.90;21.18;100081.59;7657185;32;38145;-72
2022/06/18 16:30:49;;;;;;;5.60;1.40;;;;;;;31.18;20.75;100082.59;7657551;32;37245;-73
2022/06/18 16:35:26;;;;;;;1.08;0.98;;;;;;;31.45;21.49;100079.34;7643697;32;39387;-77
2022/06/18 16:40:13;;;;;;;1.33;1.05;;;;;;;30.89;20.81;100077.03;7631367;32;40025;-75
2022/06/18 16:44:30;;;;;;;2.05;1.27;;;;;;;31.49;21.90;100071.66;7657064;32;38246;-71
2022/06/18 16:49:18;;;;;;;1.75;1.08;;;;;;;31.28;20.95;100064.09;7630772;32;37010;-82
2022/06/18 16:53:50;;;;;;;3.97;1.35;;;;;;;31.04;20.95;100066.56;7629807;32;39434;-75
2022/06/18 16:58:15;;;;;;;2.85;0.98;;;;;;;31.49;21.32;100068.84;7653197;32;39848;-75
2022/06/18 17:02:31;;;;;;;4.40;1.30;;;;;;;31.41;21.80;100068.09;7643031;32;38898;-74
2022/06/18 17:06:48;;;;;;;2.28;1.10;;;;;;;31.00;22.10;100054.50;7656169;32;37977;-77
2022/06/18 17:11:06;;;;;;;2.62;1.27;;;;;;;30.88;22.85;100060.53;7656590;32;40126;-75
2022/06/18 17:15:22;;;;;;;7.35;1.37;;;;;;;30.39;23.32;100054.53;7656188;32;39677;-76
2022/06/18 17:19:39;;;;;;;3.40;1.40;;;;;;;30.00;24.62;100054.44;7655977;32;38834;-76
2022/06/18 17:32:58;;;;;;;2.62;1.50;;;;;;;29.95;24.58;100050.81;7632058;32;40848;-76
2022/06/18 17:37:15;;;;;;;4.78;1.58;;;;;;;29.83;25.20;100045.56;7651995;32;38055;-77
2022/06/18 17:41:31;;;;;;;4.03;1.50;;;;;;;29.84;25.22;100043.53;7659692;32;37885;-77
2022/06/18 17:45:47;;;;;;;2.20;1.48;;;;;;;29.85;25.58;100031.91;7659717;32;39560;-77
2022/06/18 17:50:03;;;;;;;3.92;1.40;;;;;;;29.68;25.00;100027.81;7659548;32;40858;-76
2022/06/18 17:54:20;;;;;;;3.95;1.50;;;;;;;29.56;27.14;100036.59;7658559;32;38057;-76
2022/06/18 17:58:37;;;;;;;4.93;1.70;;;;;;;29.34;28.33;100041.34;7659462;32;37252;-77
2022/06/18 18:02:57;;;;;;;4.05;1.75;;;;;;;29.16;29.32;100047.66;7658835;32;39513;-76
2022/06/18 18:07:16;;;;;;;4.10;1.70;;;;;;;28.87;30.33;100040.22;7659617;32;39107;-76
2022/06/18 18:11:44;;;;;;;3.20;2.10;;;;;;;28.45;31.67;100043.09;7659381;32;40259;-77
2022/06/18 18:16:00;;;;;;;3.90;1.87;;;;;;;28.59;31.34;100045.22;7659298;32;37419;-76
2022/06/18 18:20:20;;;;;;;5.30;2.20;;;;;;;28.34;31.92;100046.97;7659122;32;40199;-76
2022/06/18 18:24:36;;;;;;;4.18;2.10;;;;;;;28.13;32.39;100042.81;7658718;32;40621;-76
2022/06/18 18:28:52;;;;;;;4.43;1.87;;;;;;;27.70;33.51;100048.72;7659124;32;37645;-76
2022/06/18 18:33:09;;;;;;;4.37;2.00;;;;;;;27.20;34.37;100050.03;7659120;32;37643;-76
2022/06/18 18:37:26;;;;;;;4.55;2.20;;;;;;;27.19;34.68;100060.41;7658960;32;39430;-75
2022/06/18 18:41:42;;;;;;;4.05;2.15;;;;;;;26.80;36.61;100052.25;7658909;32;40063;-76
2022/06/18 18:45:59;;;;;;;8.35;4.53;;;;;;;26.71;36.15;100057.31;7644577;32;37822;-75
2022/06/18 18:50:16;;;;;;;5.90;2.40;;;;;;;26.42;36.67;100042.81;7657939;32;37886;-74
2022/06/18 18:54:34;;;;;;;6.28;2.50;;;;;;;26.53;35.14;100055.00;7644701;32;39938;-76
2022/06/18 18:58:50;;;;;;;9.55;4.35;;;;;;;26.16;36.82;100052.75;7658466;32;38931;-76
2022/06/18 19:03:07;;;;;;;7.43;2.70;;;;;;;26.11;37.42;100055.84;7645087;32;37996;-75
2022/06/18 19:07:24;;;;;;;7.57;2.25;;;;;;;26.07;37.92;100068.94;7658741;32;37015;-75
2022/06/18 19:13:02;;;;;;;5.07;1.90;;;;;;;25.70;38.78;100075.00;7645279;32;39318;-76
2022/06/18 19:16:17;;;;;;;2.65;1.52;;;;;;;25.50;39.66;100082.53;7658678;32;39600;-76
2022/06/18 19:20:33;;;;;;;5.28;1.40;;;;;;;25.37;40.51;100084.66;7644796;32;38872;-74
2022/06/18 19:24:49;;;;;;;2.67;1.90;;;;;;;25.30;40.85;100096.47;7643853;32;38200;-76
2022/06/18 19:29:06;;;;;;;2.50;1.48;;;;;;;25.22;40.95;100103.03;7641092;32;40115;-75
2022/06/18 19:33:24;;;;;;;7.05;1.60;;;;;;;24.89;41.28;100103.44;7658187;32;39693;-74
2022/06/18 19:37:40;;;;;;;1.83;1.45;;;;;;;24.94;40.46;100094.81;7658467;32;37882;-75
2022/06/18 19:41:56;;;;;;;2.22;1.60;;;;;;;24.63;40.73;100102.00;7657355;32;34995;-76
2022/06/18 19:46:15;;;;;;;2.12;1.85;;;;;;;24.25;41.81;100106.19;7657991;32;39564;-76
2022/06/18 19:50:32;;;;;;;3.20;1.60;;;;;;;24.35;41.57;100111.22;7658130;32;40529;-75
2022/06/18 19:54:48;;;;;;;7.15;1.95;;;;;;;24.08;42.39;100104.50;7644294;32;38729;-75
2022/06/18 19:59:04;;;;;;;6.10;2.25;;;;;;;23.85;43.51;100107.03;7657841;32;37901;-76
2022/06/18 20:03:21;;;;;;;3.28;1.62;;;;;;;23.76;43.74;100109.13;7657071;32;39404;-76
2022/06/18 20:07:38;;;;;;;3.00;1.55;;;;;;;23.74;43.43;100103.12;7657986;32;40039;-74
2022/06/18 20:11:54;;;;;;;4.45;1.77;;;;;;;23.70;43.21;100097.44;7657873;32;37915;-74
2022/06/18 20:16:14;;;;;;;7.62;2.45;;;;;;;23.44;43.07;100095.09;7657429;32;37070;-76
2022/06/18 20:20:31;;;;;;;3.58;1.37;;;;;;;23.45;42.53;100096.69;7657188;32;40148;-76
2022/06/18 20:24:47;;;;;;;3.55;1.65;;;;;;;23.41;42.10;100101.34;7656775;32;40424;-76
2022/06/18 20:29:03;;;;;;;8.30;4.20;;;;;;;23.27;42.65;100109.25;7656901;32;38980;-76
2022/06/18 20:33:23;;;;;;;4.57;2.30;;;;;;;23.03;43.57;100111.69;7656853;32;38009;-76
2022/06/18 20:37:39;;;;;;;2.42;1.90;;;;;;;23.14;43.30;100112.03;7644614;32;39376;-75
2022/06/18 20:41:56;;;;;;;4.65;2.30;;;;;;;22.89;44.32;100114.00;7646807;32;40182;-74
2022/06/18 20:46:17;;;;;;;6.90;3.10;;;;;;;22.73;44.89;100111.09;7643762;32;38518;-75
2022/06/18 20:50:33;;;;;;;3.35;1.70;;;;;;;22.59;44.03;100116.97;7657381;32;37341;-75